sensor_id;sensor_type;location;lat;lon;timestamp;temperature;humidity
3360;DHT22;1693;49.602;11.046;2023-12-14T00:01:17;5.10;99.90
3360;DHT22;1693;49.602;11.046;2023-12-14T00:03:44;5.20;99.90
3360;DHT22;1693;49.602;11.046;2023-12-14T00:06:13;5.20;99.90
3360;DHT22;1693;49.602;11.046;2023-12-14T00:08:40;5.20;99.90
3360;DHT22;1693;49.602;11.046;2023-12-14T00:11:09;5.30;99.90
3360;DHT22;1693;49.602;11.046;2023-12-14T00:13:36;5.30;99.90
3360;DHT22;1693;49.602;11.046;2023-12-14T00:16:06;5.30;99.90
3360;DHT22;1693;49.602;11.046;2023-12-14T00:18:34;5.50;99.90
3360;DHT22;1693;49.602;11.046;2023-12-14T00:21:01;5.50;99.90
3360;DHT22;1693;49.602;11.046;2023-12-14T00:23:30;5.50;99.90
3360;DHT22;1693;49.602;11.046;2023-12-14T00:25:57;5.50;99.90
3360;DHT22;1693;49.602;11.046;2023-12-14T00:28:24;5.70;99.90
3360;DHT22;1693;49.602;11.046;2023-12-14T00:30:52;5.70;99.90
3360;DHT22;1693;49.602;11.046;2023-12-14T00:33:19;5.80;99.90
3360;DHT22;1693;49.602;11.046;2023-12-14T00:35:46;5.90;99.90
3360;DHT22;1693;49.602;11.046;2023-12-14T00:38:13;5.90;99.90
3360;DHT22;1693;49.602;11.046;2023-12-14T00:40:42;5.90;99.90
3360;DHT22;1693;49.602;11.046;2023-12-14T00:43:09;6.00;99.90
3360;DHT22;1693;49.602;11.046;2023-12-14T00:45:36;6.00;99.90
3360;DHT22;1693;49.602;11.046;2023-12-14T00:48:04;5.90;99.90
3360;DHT22;1693;49.602;11.046;2023-12-14T00:50:31;5.90;99.90
3360;DHT22;1693;49.602;11.046;2023-12-14T00:52:57;5.80;99.90
3360;DHT22;1693;49.602;11.046;2023-12-14T00:55:24;5.90;99.90
3360;DHT22;1693;49.602;11.046;2023-12-14T00:57:53;5.90;99.90
3360;DHT22;1693;49.602;11.046;2023-12-14T01:00:20;6.00;99.90
3360;DHT22;1693;49.602;11.046;2023-12-14T01:02:47;6.00;99.90
3360;DHT22;1693;49.602;11.046;2023-12-14T01:05:15;6.00;99.90
3360;DHT22;1693;49.602;11.046;2023-12-14T01:07:42;6.10;99.90
3360;DHT22;1693;49.602;11.046;2023-12-14T01:10:10;6.20;99.90
3360;DHT22;1693;49.602;11.046;2023-12-14T01:12:37;6.30;99.90
3360;DHT22;1693;49.602;11.046;2023-12-14T01:15:07;6.40;99.90
3360;DHT22;1693;49.602;11.046;2023-12-14T01:17:34;6.50;99.90
3360;DHT22;1693;49.602;11.046;2023-12-14T01:20:04;6.50;99.90
3360;DHT22;1693;49.602;11.046;2023-12-14T01:22:32;6.50;99.90
3360;DHT22;1693;49.602;11.046;2023-12-14T01:25:00;6.60;99.90
3360;DHT22;1693;49.602;11.046;2023-12-14T01:27:27;6.50;99.90
3360;DHT22;1693;49.602;11.046;2023-12-14T01:29:54;6.50;99.90
3360;DHT22;1693;49.602;11.046;2023-12-14T01:32:22;6.60;99.90
3360;DHT22;1693;49.602;11.046;2023-12-14T01:34:49;6.60;99.90
3360;DHT22;1693;49.602;11.046;2023-12-14T01:37:17;6.70;99.90
3360;DHT22;1693;49.602;11.046;2023-12-14T01:39:44;6.70;99.90
3360;DHT22;1693;49.602;11.046;2023-12-14T01:42:11;6.60;99.90
3360;DHT22;1693;49.602;11.046;2023-12-14T01:44:39;6.60;99.90
3360;DHT22;1693;49.602;11.046;2023-12-14T01:47:06;6.60;99.90
3360;DHT22;1693;49.602;11.046;2023-12-14T01:49:35;6.40;99.90
3360;DHT22;1693;49.602;11.046;2023-12-14T01:52:02;6.40;99.90
3360;DHT22;1693;49.602;11.046;2023-12-14T01:54:30;6.40;99.90
3360;DHT22;1693;49.602;11.046;2023-12-14T01:56:57;6.30;99.90
3360;DHT22;1693;49.602;11.046;2023-12-14T01:59:24;6.20;99.90
3360;DHT22;1693;49.602;11.046;2023-12-14T02:01:53;6.20;99.90
3360;DHT22;1693;49.602;11.046;2023-12-14T02:04:23;6.20;99.90
3360;DHT22;1693;49.602;11.046;2023-12-14T02:06:52;6.10;99.90
3360;DHT22;1693;49.602;11.046;2023-12-14T02:09:19;6.10;99.90
3360;DHT22;1693;49.602;11.046;2023-12-14T02:11:46;6.00;99.90
3360;DHT22;1693;49.602;11.046;2023-12-14T02:14:13;6.10;99.90
3360;DHT22;1693;49.602;11.046;2023-12-14T02:16:40;6.10;99.90
3360;DHT22;1693;49.602;11.046;2023-12-14T02:19:08;6.20;99.90
3360;DHT22;1693;49.602;11.046;2023-12-14T02:21:35;6.10;99.90
3360;DHT22;1693;49.602;11.046;2023-12-14T02:24:04;6.10;99.90
3360;DHT22;1693;49.602;11.046;2023-12-14T02:26:31;6.10;99.90
3360;DHT22;1693;49.602;11.046;2023-12-14T02:28:59;6.10;99.90
3360;DHT22;1693;49.602;11.046;2023-12-14T02:31:26;6.00;99.90
3360;DHT22;1693;49.602;11.046;2023-12-14T02:33:53;6.00;99.90
3360;DHT22;1693;49.602;11.046;2023-12-14T02:36:21;5.90;99.90
3360;DHT22;1693;49.602;11.046;2023-12-14T02:38:48;6.00;99.90
3360;DHT22;1693;49.602;11.046;2023-12-14T02:41:16;5.90;99.90
3360;DHT22;1693;49.602;11.046;2023-12-14T02:43:44;5.90;99.90
3360;DHT22;1693;49.602;11.046;2023-12-14T02:46:11;5.80;99.90
3360;DHT22;1693;49.602;11.046;2023-12-14T02:48:41;6.00;99.90
3360;DHT22;1693;49.602;11.046;2023-12-14T02:51:12;5.80;99.90
3360;DHT22;1693;49.602;11.046;2023-12-14T02:53:40;5.80;99.90
3360;DHT22;1693;49.602;11.046;2023-12-14T02:56:09;5.90;99.90
3360;DHT22;1693;49.602;11.046;2023-12-14T02:58:38;5.90;99.90
3360;DHT22;1693;49.602;11.046;2023-12-14T03:01:06;5.90;99.90
3360;DHT22;1693;49.602;11.046;2023-12-14T03:03:33;5.90;99.90
3360;DHT22;1693;49.602;11.046;2023-12-14T03:06:00;5.90;99.90
3360;DHT22;1693;49.602;11.046;2023-12-14T03:08:27;5.90;99.90
3360;DHT22;1693;49.602;11.046;2023-12-14T03:10:54;5.90;99.90
3360;DHT22;1693;49.602;11.046;2023-12-14T03:13:21;5.90;99.90
3360;DHT22;1693;49.602;11.046;2023-12-14T03:15:50;5.90;99.90
3360;DHT22;1693;49.602;11.046;2023-12-14T03:18:17;5.90;99.90
3360;DHT22;1693;49.602;11.046;2023-12-14T03:20:44;6.00;99.90
3360;DHT22;1693;49.602;11.046;2023-12-14T03:23:11;6.10;99.90
3360;DHT22;1693;49.602;11.046;2023-12-14T03:25:38;6.00;99.90
3360;DHT22;1693;49.602;11.046;2023-12-14T03:28:05;6.00;99.90
3360;DHT22;1693;49.602;11.046;2023-12-14T03:30:33;6.10;99.90
3360;DHT22;1693;49.602;11.046;2023-12-14T03:33:03;6.10;99.90
3360;DHT22;1693;49.602;11.046;2023-12-14T03:35:32;6.10;99.90
3360;DHT22;1693;49.602;11.046;2023-12-14T03:38:00;6.00;99.90
3360;DHT22;1693;49.602;11.046;2023-12-14T03:40:27;6.00;99.90
3360;DHT22;1693;49.602;11.046;2023-12-14T03:42:54;5.90;99.90
3360;DHT22;1693;49.602;11.046;2023-12-14T03:45:21;6.00;99.90
3360;DHT22;1693;49.602;11.046;2023-12-14T03:47:49;5.90;99.90
3360;DHT22;1693;49.602;11.046;2023-12-14T03:50:17;6.00;99.90
3360;DHT22;1693;49.602;11.046;2023-12-14T03:52:44;5.90;99.90
3360;DHT22;1693;49.602;11.046;2023-12-14T03:55:12;5.90;99.90
3360;DHT22;1693;49.602;11.046;2023-12-14T03:57:40;5.80;99.90
3360;DHT22;1693;49.602;11.046;2023-12-14T04:00:10;5.80;99.90
3360;DHT22;1693;49.602;11.046;2023-12-14T04:02:38;5.70;99.90
3360;DHT22;1693;49.602;11.046;2023-12-14T04:05:06;5.80;99.90
3360;DHT22;1693;49.602;11.046;2023-12-14T04:07:35;5.80;99.90
3360;DHT22;1693;49.602;11.046;2023-12-14T04:10:02;5.90;99.90
3360;DHT22;1693;49.602;11.046;2023-12-14T04:12:29;5.90;99.90
3360;DHT22;1693;49.602;11.046;2023-12-14T04:14:56;5.90;99.90
3360;DHT22;1693;49.602;11.046;2023-12-14T04:17:24;6.00;99.90
3360;DHT22;1693;49.602;11.046;2023-12-14T04:19:51;6.00;99.90
3360;DHT22;1693;49.602;11.046;2023-12-14T04:22:18;5.90;99.90
3360;DHT22;1693;49.602;11.046;2023-12-14T04:24:47;6.10;99.90
3360;DHT22;1693;49.602;11.046;2023-12-14T04:27:14;6.00;99.90
3360;DHT22;1693;49.602;11.046;2023-12-14T04:29:41;5.90;99.90
3360;DHT22;1693;49.602;11.046;2023-12-14T04:32:08;5.90;99.90
3360;DHT22;1693;49.602;11.046;2023-12-14T04:34:36;5.90;99.90
3360;DHT22;1693;49.602;11.046;2023-12-14T04:37:03;5.90;99.90
3360;DHT22;1693;49.602;11.046;2023-12-14T04:39:30;5.90;99.90
3360;DHT22;1693;49.602;11.046;2023-12-14T04:41:59;5.90;99.90
3360;DHT22;1693;49.602;11.046;2023-12-14T04:44:26;6.00;99.90
3360;DHT22;1693;49.602;11.046;2023-12-14T04:46:53;6.00;99.90
3360;DHT22;1693;49.602;11.046;2023-12-14T04:49:21;6.10;99.90
3360;DHT22;1693;49.602;11.046;2023-12-14T04:51:48;6.10;99.90
3360;DHT22;1693;49.602;11.046;2023-12-14T04:54:15;6.10;99.90
3360;DHT22;1693;49.602;11.046;2023-12-14T04:56:45;6.10;99.90
3360;DHT22;1693;49.602;11.046;2023-12-14T04:59:14;6.20;99.90
3360;DHT22;1693;49.602;11.046;2023-12-14T05:01:41;6.20;99.90
3360;DHT22;1693;49.602;11.046;2023-12-14T05:04:09;6.10;99.90
3360;DHT22;1693;49.602;11.046;2023-12-14T05:06:36;6.30;99.90
3360;DHT22;1693;49.602;11.046;2023-12-14T05:09:04;6.40;99.90
3360;DHT22;1693;49.602;11.046;2023-12-14T05:11:32;6.40;99.90
3360;DHT22;1693;49.602;11.046;2023-12-14T05:13:59;6.40;99.90
3360;DHT22;1693;49.602;11.046;2023-12-14T05:16:28;6.40;99.90
3360;DHT22;1693;49.602;11.046;2023-12-14T05:18:56;6.40;99.90
3360;DHT22;1693;49.602;11.046;2023-12-14T05:21:23;6.40;99.90
3360;DHT22;1693;49.602;11.046;2023-12-14T05:23:50;6.40;99.90
3360;DHT22;1693;49.602;11.046;2023-12-14T05:26:19;6.40;99.90
3360;DHT22;1693;49.602;11.046;2023-12-14T05:28:46;6.40;99.90
3360;DHT22;1693;49.602;11.046;2023-12-14T05:31:13;6.40;99.90
3360;DHT22;1693;49.602;11.046;2023-12-14T05:33:42;6.30;99.90
3360;DHT22;1693;49.602;11.046;2023-12-14T05:36:09;6.10;99.90
3360;DHT22;1693;49.602;11.046;2023-12-14T05:38:38;6.00;99.90
3360;DHT22;1693;49.602;11.046;2023-12-14T05:41:06;6.10;99.90
3360;DHT22;1693;49.602;11.046;2023-12-14T05:43:33;6.20;99.90
3360;DHT22;1693;49.602;11.046;2023-12-14T05:46:00;6.10;99.90
3360;DHT22;1693;49.602;11.046;2023-12-14T05:48:28;6.10;99.90
3360;DHT22;1693;49.602;11.046;2023-12-14T05:50:57;6.30;99.90
3360;DHT22;1693;49.602;11.046;2023-12-14T05:53:24;6.30;99.90
3360;DHT22;1693;49.602;11.046;2023-12-14T05:55:51;6.30;99.90
3360;DHT22;1693;49.602;11.046;2023-12-14T05:58:18;6.30;99.90
3360;DHT22;1693;49.602;11.046;2023-12-14T06:00:45;6.40;99.90
3360;DHT22;1693;49.602;11.046;2023-12-14T06:03:12;6.30;99.90
3360;DHT22;1693;49.602;11.046;2023-12-14T06:05:40;6.40;99.90
3360;DHT22;1693;49.602;11.046;2023-12-14T06:08:08;6.10;99.90
3360;DHT22;1693;49.602;11.046;2023-12-14T06:10:35;6.00;99.90
3360;DHT22;1693;49.602;11.046;2023-12-14T06:13:02;5.90;99.90
3360;DHT22;1693;49.602;11.046;2023-12-14T06:15:30;5.80;99.90
3360;DHT22;1693;49.602;11.046;2023-12-14T06:17:57;5.80;99.90
3360;DHT22;1693;49.602;11.046;2023-12-14T06:20:24;5.80;99.90
3360;DHT22;1693;49.602;11.046;2023-12-14T06:22:55;5.80;99.90
3360;DHT22;1693;49.602;11.046;2023-12-14T06:25:23;5.90;99.90
3360;DHT22;1693;49.602;11.046;2023-12-14T06:27:50;5.90;99.90
3360;DHT22;1693;49.602;11.046;2023-12-14T06:30:18;5.80;99.90
3360;DHT22;1693;49.602;11.046;2023-12-14T06:32:46;6.00;99.90
3360;DHT22;1693;49.602;11.046;2023-12-14T06:35:13;6.00;99.90
3360;DHT22;1693;49.602;11.046;2023-12-14T06:37:41;5.90;99.90
3360;DHT22;1693;49.602;11.046;2023-12-14T06:40:09;5.90;99.90
3360;DHT22;1693;49.602;11.046;2023-12-14T06:42:37;6.00;99.90
3360;DHT22;1693;49.602;11.046;2023-12-14T06:45:06;5.90;99.90
3360;DHT22;1693;49.602;11.046;2023-12-14T06:47:33;6.00;99.90
3360;DHT22;1693;49.602;11.046;2023-12-14T06:50:00;6.00;99.90
3360;DHT22;1693;49.602;11.046;2023-12-14T06:52:28;6.10;99.90
3360;DHT22;1693;49.602;11.046;2023-12-14T06:54:55;6.00;99.90
3360;DHT22;1693;49.602;11.046;2023-12-14T06:57:22;6.10;99.90
3360;DHT22;1693;49.602;11.046;2023-12-14T06:59:51;6.10;99.90
3360;DHT22;1693;49.602;11.046;2023-12-14T07:02:19;6.10;99.90
3360;DHT22;1693;49.602;11.046;2023-12-14T07:04:46;5.90;99.90
3360;DHT22;1693;49.602;11.046;2023-12-14T07:07:15;5.80;99.90
3360;DHT22;1693;49.602;11.046;2023-12-14T07:09:43;5.90;99.90
3360;DHT22;1693;49.602;11.046;2023-12-14T07:12:11;5.90;99.90
3360;DHT22;1693;49.602;11.046;2023-12-14T07:14:39;5.90;99.90
3360;DHT22;1693;49.602;11.046;2023-12-14T07:17:07;5.90;99.90
3360;DHT22;1693;49.602;11.046;2023-12-14T07:19:34;6.00;99.90
3360;DHT22;1693;49.602;11.046;2023-12-14T07:22:02;6.10;99.90
3360;DHT22;1693;49.602;11.046;2023-12-14T07:24:29;6.20;99.90
3360;DHT22;1693;49.602;11.046;2023-12-14T07:26:56;6.20;99.90
3360;DHT22;1693;49.602;11.046;2023-12-14T07:29:23;6.30;99.90
3360;DHT22;1693;49.602;11.046;2023-12-14T07:31:50;6.20;99.90
3360;DHT22;1693;49.602;11.046;2023-12-14T07:34:19;6.10;99.90
3360;DHT22;1693;49.602;11.046;2023-12-14T07:36:47;6.10;99.90
3360;DHT22;1693;49.602;11.046;2023-12-14T07:39:14;6.10;99.90
3360;DHT22;1693;49.602;11.046;2023-12-14T07:41:41;6.10;99.90
3360;DHT22;1693;49.602;11.046;2023-12-14T07:44:09;6.20;99.90
3360;DHT22;1693;49.602;11.046;2023-12-14T07:46:36;6.10;99.90
3360;DHT22;1693;49.602;11.046;2023-12-14T07:49:05;6.20;99.90
3360;DHT22;1693;49.602;11.046;2023-12-14T07:51:34;6.20;99.90
3360;DHT22;1693;49.602;11.046;2023-12-14T07:54:01;6.20;99.90
3360;DHT22;1693;49.602;11.046;2023-12-14T07:56:29;6.10;99.90
3360;DHT22;1693;49.602;11.046;2023-12-14T07:58:58;6.10;99.90
3360;DHT22;1693;49.602;11.046;2023-12-14T08:01:25;6.20;99.90
3360;DHT22;1693;49.602;11.046;2023-12-14T08:03:52;6.40;99.90
3360;DHT22;1693;49.602;11.046;2023-12-14T08:06:19;6.50;99.90
3360;DHT22;1693;49.602;11.046;2023-12-14T08:08:48;6.60;99.90
3360;DHT22;1693;49.602;11.046;2023-12-14T08:11:15;6.50;99.90
3360;DHT22;1693;49.602;11.046;2023-12-14T08:13:44;6.50;99.90
3360;DHT22;1693;49.602;11.046;2023-12-14T08:16:12;6.30;99.90
3360;DHT22;1693;49.602;11.046;2023-12-14T08:18:43;6.40;99.90
3360;DHT22;1693;49.602;11.046;2023-12-14T08:21:12;6.50;99.90
3360;DHT22;1693;49.602;11.046;2023-12-14T08:23:39;6.50;99.90
3360;DHT22;1693;49.602;11.046;2023-12-14T08:26:08;6.60;99.90
3360;DHT22;1693;49.602;11.046;2023-12-14T08:28:36;6.60;99.90
3360;DHT22;1693;49.602;11.046;2023-12-14T08:31:03;6.60;99.90
3360;DHT22;1693;49.602;11.046;2023-12-14T08:33:31;6.60;99.90
3360;DHT22;1693;49.602;11.046;2023-12-14T08:35:58;6.70;99.90
3360;DHT22;1693;49.602;11.046;2023-12-14T08:38:25;6.70;99.90
3360;DHT22;1693;49.602;11.046;2023-12-14T08:40:52;6.50;99.90
3360;DHT22;1693;49.602;11.046;2023-12-14T08:43:20;6.60;99.90
3360;DHT22;1693;49.602;11.046;2023-12-14T08:45:47;6.70;99.90
3360;DHT22;1693;49.602;11.046;2023-12-14T08:48:15;6.60;99.90
3360;DHT22;1693;49.602;11.046;2023-12-14T08:50:42;6.60;99.90
3360;DHT22;1693;49.602;11.046;2023-12-14T08:53:09;6.70;99.90
3360;DHT22;1693;49.602;11.046;2023-12-14T08:55:37;6.70;99.90
3360;DHT22;1693;49.602;11.046;2023-12-14T08:58:04;6.80;99.90
3360;DHT22;1693;49.602;11.046;2023-12-14T09:00:32;6.90;99.90
3360;DHT22;1693;49.602;11.046;2023-12-14T09:02:59;6.80;99.90
3360;DHT22;1693;49.602;11.046;2023-12-14T09:05:26;6.80;99.90
3360;DHT22;1693;49.602;11.046;2023-12-14T09:07:53;6.80;99.90
3360;DHT22;1693;49.602;11.046;2023-12-14T09:10:22;6.70;99.90
3360;DHT22;1693;49.602;11.046;2023-12-14T09:12:49;6.80;99.90
3360;DHT22;1693;49.602;11.046;2023-12-14T09:15:16;6.80;99.90
3360;DHT22;1693;49.602;11.046;2023-12-14T09:17:45;6.80;99.90
3360;DHT22;1693;49.602;11.046;2023-12-14T09:20:13;6.80;99.90
3360;DHT22;1693;49.602;11.046;2023-12-14T09:22:40;6.90;99.90
3360;DHT22;1693;49.602;11.046;2023-12-14T09:25:09;6.90;99.90
3360;DHT22;1693;49.602;11.046;2023-12-14T09:27:36;7.00;99.90
3360;DHT22;1693;49.602;11.046;2023-12-14T09:30:04;6.90;99.90
3360;DHT22;1693;49.602;11.046;2023-12-14T09:32:31;7.10;99.90
3360;DHT22;1693;49.602;11.046;2023-12-14T09:35:00;7.20;99.90
3360;DHT22;1693;49.602;11.046;2023-12-14T09:37:27;7.20;99.90
3360;DHT22;1693;49.602;11.046;2023-12-14T09:39:54;7.20;99.90
3360;DHT22;1693;49.602;11.046;2023-12-14T09:42:22;7.20;99.90
3360;DHT22;1693;49.602;11.046;2023-12-14T09:44:50;7.10;99.90
3360;DHT22;1693;49.602;11.046;2023-12-14T09:47:18;7.00;99.90
3360;DHT22;1693;49.602;11.046;2023-12-14T09:49:45;6.90;99.90
3360;DHT22;1693;49.602;11.046;2023-12-14T09:52:14;6.90;99.90
3360;DHT22;1693;49.602;11.046;2023-12-14T09:54:41;6.90;99.90
3360;DHT22;1693;49.602;11.046;2023-12-14T09:57:08;7.00;99.90
3360;DHT22;1693;49.602;11.046;2023-12-14T09:59:38;7.20;99.90
3360;DHT22;1693;49.602;11.046;2023-12-14T10:02:12;7.10;99.90
3360;DHT22;1693;49.602;11.046;2023-12-14T10:04:39;7.20;99.90
3360;DHT22;1693;49.602;11.046;2023-12-14T10:07:06;7.10;99.90
3360;DHT22;1693;49.602;11.046;2023-12-14T10:09:40;7.10;99.90
3360;DHT22;1693;49.602;11.046;2023-12-14T10:12:11;7.00;99.90
3360;DHT22;1693;49.602;11.046;2023-12-14T10:14:40;7.00;99.90
3360;DHT22;1693;49.602;11.046;2023-12-14T10:17:18;7.10;99.90
3360;DHT22;1693;49.602;11.046;2023-12-14T10:19:47;7.30;99.90
3360;DHT22;1693;49.602;11.046;2023-12-14T10:22:16;7.20;99.90
3360;DHT22;1693;49.602;11.046;2023-12-14T10:24:46;7.30;99.90
3360;DHT22;1693;49.602;11.046;2023-12-14T10:27:14;7.30;99.90
3360;DHT22;1693;49.602;11.046;2023-12-14T10:29:42;7.20;99.90
3360;DHT22;1693;49.602;11.046;2023-12-14T10:32:10;7.20;99.90
3360;DHT22;1693;49.602;11.046;2023-12-14T10:34:37;7.30;99.90
3360;DHT22;1693;49.602;11.046;2023-12-14T10:37:05;7.30;99.90
3360;DHT22;1693;49.602;11.046;2023-12-14T10:39:34;7.20;99.90
3360;DHT22;1693;49.602;11.046;2023-12-14T10:42:04;7.30;99.90
3360;DHT22;1693;49.602;11.046;2023-12-14T10:44:36;7.40;99.90
3360;DHT22;1693;49.602;11.046;2023-12-14T10:47:03;7.40;99.90
3360;DHT22;1693;49.602;11.046;2023-12-14T10:49:34;7.40;99.90
3360;DHT22;1693;49.602;11.046;2023-12-14T10:52:04;7.30;99.90
3360;DHT22;1693;49.602;11.046;2023-12-14T10:54:32;7.30;99.90
3360;DHT22;1693;49.602;11.046;2023-12-14T10:57:03;7.40;99.90
3360;DHT22;1693;49.602;11.046;2023-12-14T10:59:33;7.40;99.90
3360;DHT22;1693;49.602;11.046;2023-12-14T11:02:08;7.60;99.90
3360;DHT22;1693;49.602;11.046;2023-12-14T11:04:59;7.60;99.90
3360;DHT22;1693;49.602;11.046;2023-12-14T11:07:44;7.80;99.90
3360;DHT22;1693;49.602;11.046;2023-12-14T11:10:12;7.80;99.90
3360;DHT22;1693;49.602;11.046;2023-12-14T11:12:54;7.80;99.90
3360;DHT22;1693;49.602;11.046;2023-12-14T11:15:22;7.60;99.90
3360;DHT22;1693;49.602;11.046;2023-12-14T11:18:21;7.70;99.90
3360;DHT22;1693;49.602;11.046;2023-12-14T11:20:49;7.80;99.90
3360;DHT22;1693;49.602;11.046;2023-12-14T11:23:17;7.80;99.90
3360;DHT22;1693;49.602;11.046;2023-12-14T11:25:48;7.80;99.90
3360;DHT22;1693;49.602;11.046;2023-12-14T11:28:17;7.60;99.90
3360;DHT22;1693;49.602;11.046;2023-12-14T11:30:44;7.70;99.90
3360;DHT22;1693;49.602;11.046;2023-12-14T11:33:12;7.70;99.90
3360;DHT22;1693;49.602;11.046;2023-12-14T11:35:40;7.80;99.90
3360;DHT22;1693;49.602;11.046;2023-12-14T11:38:07;7.70;99.90
3360;DHT22;1693;49.602;11.046;2023-12-14T11:40:38;7.70;99.90
3360;DHT22;1693;49.602;11.046;2023-12-14T11:43:06;7.80;99.90
3360;DHT22;1693;49.602;11.046;2023-12-14T11:45:36;7.80;99.90
3360;DHT22;1693;49.602;11.046;2023-12-14T11:48:03;7.90;99.90
3360;DHT22;1693;49.602;11.046;2023-12-14T11:50:31;7.90;99.90
3360;DHT22;1693;49.602;11.046;2023-12-14T11:53:00;8.00;99.90
3360;DHT22;1693;49.602;11.046;2023-12-14T11:55:29;8.10;99.90
3360;DHT22;1693;49.602;11.046;2023-12-14T11:57:57;8.10;99.90
3360;DHT22;1693;49.602;11.046;2023-12-14T12:00:25;8.10;99.90
3360;DHT22;1693;49.602;11.046;2023-12-14T12:03:08;8.30;99.90
3360;DHT22;1693;49.602;11.046;2023-12-14T12:05:36;8.40;99.90
3360;DHT22;1693;49.602;11.046;2023-12-14T12:08:04;8.30;99.90
3360;DHT22;1693;49.602;11.046;2023-12-14T12:10:31;8.20;99.90
3360;DHT22;1693;49.602;11.046;2023-12-14T12:13:02;8.30;99.90
3360;DHT22;1693;49.602;11.046;2023-12-14T12:15:31;8.20;99.90
3360;DHT22;1693;49.602;11.046;2023-12-14T12:18:02;8.20;99.90
3360;DHT22;1693;49.602;11.046;2023-12-14T12:20:31;8.10;99.90
3360;DHT22;1693;49.602;11.046;2023-12-14T12:22:58;8.00;99.90
3360;DHT22;1693;49.602;11.046;2023-12-14T12:25:26;8.00;99.90
3360;DHT22;1693;49.602;11.046;2023-12-14T12:27:54;8.00;99.90
3360;DHT22;1693;49.602;11.046;2023-12-14T12:30:22;8.10;99.90
3360;DHT22;1693;49.602;11.046;2023-12-14T12:32:50;7.90;99.90
3360;DHT22;1693;49.602;11.046;2023-12-14T12:35:18;7.80;99.90
3360;DHT22;1693;49.602;11.046;2023-12-14T12:37:47;7.90;99.90
3360;DHT22;1693;49.602;11.046;2023-12-14T12:40:19;7.90;99.90
3360;DHT22;1693;49.602;11.046;2023-12-14T12:42:48;7.90;99.90
3360;DHT22;1693;49.602;11.046;2023-12-14T12:45:15;8.00;99.90
3360;DHT22;1693;49.602;11.046;2023-12-14T12:47:43;7.90;99.90
3360;DHT22;1693;49.602;11.046;2023-12-14T12:50:10;7.90;99.90
3360;DHT22;1693;49.602;11.046;2023-12-14T12:52:39;7.90;99.90
3360;DHT22;1693;49.602;11.046;2023-12-14T12:55:15;7.80;99.90
3360;DHT22;1693;49.602;11.046;2023-12-14T12:57:42;7.70;99.90
3360;DHT22;1693;49.602;11.046;2023-12-14T13:00:10;7.50;99.90
3360;DHT22;1693;49.602;11.046;2023-12-14T13:02:37;7.50;99.90
3360;DHT22;1693;49.602;11.046;2023-12-14T13:05:06;7.50;99.90
3360;DHT22;1693;49.602;11.046;2023-12-14T13:07:34;7.40;99.90
3360;DHT22;1693;49.602;11.046;2023-12-14T13:10:02;7.40;99.90
3360;DHT22;1693;49.602;11.046;2023-12-14T13:12:32;7.40;99.90
3360;DHT22;1693;49.602;11.046;2023-12-14T13:14:59;7.40;99.90
3360;DHT22;1693;49.602;11.046;2023-12-14T13:17:29;7.40;99.90
3360;DHT22;1693;49.602;11.046;2023-12-14T13:19:56;7.40;99.90
3360;DHT22;1693;49.602;11.046;2023-12-14T13:22:24;7.30;99.90
3360;DHT22;1693;49.602;11.046;2023-12-14T13:24:51;7.40;99.90
3360;DHT22;1693;49.602;11.046;2023-12-14T13:27:18;7.20;99.90
3360;DHT22;1693;49.602;11.046;2023-12-14T13:30:09;7.10;99.90
3360;DHT22;1693;49.602;11.046;2023-12-14T13:32:36;7.10;99.90
3360;DHT22;1693;49.602;11.046;2023-12-14T13:35:04;7.10;99.90
3360;DHT22;1693;49.602;11.046;2023-12-14T13:37:32;7.10;99.90
3360;DHT22;1693;49.602;11.046;2023-12-14T13:39:59;7.10;99.90
3360;DHT22;1693;49.602;11.046;2023-12-14T13:42:26;7.10;99.90
3360;DHT22;1693;49.602;11.046;2023-12-14T13:44:53;7.00;99.90
3360;DHT22;1693;49.602;11.046;2023-12-14T13:47:22;6.90;99.90
3360;DHT22;1693;49.602;11.046;2023-12-14T13:49:49;7.00;99.90
3360;DHT22;1693;49.602;11.046;2023-12-14T13:52:16;6.80;99.90
3360;DHT22;1693;49.602;11.046;2023-12-14T13:54:44;6.80;99.90
3360;DHT22;1693;49.602;11.046;2023-12-14T13:57:11;6.70;99.90
3360;DHT22;1693;49.602;11.046;2023-12-14T13:59:38;6.80;99.90
3360;DHT22;1693;49.602;11.046;2023-12-14T14:02:05;6.80;99.90
3360;DHT22;1693;49.602;11.046;2023-12-14T14:04:34;6.90;99.90
3360;DHT22;1693;49.602;11.046;2023-12-14T14:07:01;6.90;99.90
3360;DHT22;1693;49.602;11.046;2023-12-14T14:09:28;7.00;99.90
3360;DHT22;1693;49.602;11.046;2023-12-14T14:11:56;7.00;99.90
3360;DHT22;1693;49.602;11.046;2023-12-14T14:14:29;7.00;99.90
3360;DHT22;1693;49.602;11.046;2023-12-14T14:16:56;7.00;99.90
3360;DHT22;1693;49.602;11.046;2023-12-14T14:19:23;7.00;99.90
3360;DHT22;1693;49.602;11.046;2023-12-14T14:21:53;7.00;99.90
3360;DHT22;1693;49.602;11.046;2023-12-14T14:24:21;7.10;99.90
3360;DHT22;1693;49.602;11.046;2023-12-14T14:26:48;7.10;99.90
3360;DHT22;1693;49.602;11.046;2023-12-14T14:29:15;6.90;99.90
3360;DHT22;1693;49.602;11.046;2023-12-14T14:31:44;7.00;99.90
3360;DHT22;1693;49.602;11.046;2023-12-14T14:34:11;7.00;99.90
3360;DHT22;1693;49.602;11.046;2023-12-14T14:36:38;7.10;99.90
3360;DHT22;1693;49.602;11.046;2023-12-14T14:39:06;7.00;99.90
3360;DHT22;1693;49.602;11.046;2023-12-14T14:41:34;7.00;99.90
3360;DHT22;1693;49.602;11.046;2023-12-14T14:44:01;7.00;99.90
3360;DHT22;1693;49.602;11.046;2023-12-14T14:46:29;7.10;99.90
3360;DHT22;1693;49.602;11.046;2023-12-14T14:48:56;7.10;99.90
3360;DHT22;1693;49.602;11.046;2023-12-14T14:51:25;6.90;99.90
3360;DHT22;1693;49.602;11.046;2023-12-14T14:53:52;7.00;99.90
3360;DHT22;1693;49.602;11.046;2023-12-14T14:56:21;7.00;99.90
3360;DHT22;1693;49.602;11.046;2023-12-14T14:58:48;7.00;99.90
3360;DHT22;1693;49.602;11.046;2023-12-14T15:01:15;7.00;99.90
3360;DHT22;1693;49.602;11.046;2023-12-14T15:03:43;7.00;99.90
3360;DHT22;1693;49.602;11.046;2023-12-14T15:06:10;7.10;99.90
3360;DHT22;1693;49.602;11.046;2023-12-14T15:08:37;7.10;99.90
3360;DHT22;1693;49.602;11.046;2023-12-14T15:11:05;7.10;99.90
3360;DHT22;1693;49.602;11.046;2023-12-14T15:13:38;7.00;99.90
3360;DHT22;1693;49.602;11.046;2023-12-14T15:16:07;6.90;99.90
3360;DHT22;1693;49.602;11.046;2023-12-14T15:18:35;6.90;99.90
3360;DHT22;1693;49.602;11.046;2023-12-14T15:21:07;6.80;99.90
3360;DHT22;1693;49.602;11.046;2023-12-14T15:23:34;6.90;99.90
3360;DHT22;1693;49.602;11.046;2023-12-14T15:26:02;6.90;99.90
3360;DHT22;1693;49.602;11.046;2023-12-14T15:28:30;6.90;99.90
3360;DHT22;1693;49.602;11.046;2023-12-14T15:30:59;6.80;99.90
3360;DHT22;1693;49.602;11.046;2023-12-14T15:33:27;6.70;99.90
3360;DHT22;1693;49.602;11.046;2023-12-14T15:35:54;6.70;99.90
3360;DHT22;1693;49.602;11.046;2023-12-14T15:38:21;6.60;99.90
3360;DHT22;1693;49.602;11.046;2023-12-14T15:40:49;6.70;99.90
3360;DHT22;1693;49.602;11.046;2023-12-14T15:43:16;6.70;99.90
3360;DHT22;1693;49.602;11.046;2023-12-14T15:45:45;6.70;99.90
3360;DHT22;1693;49.602;11.046;2023-12-14T15:48:14;6.60;99.90
3360;DHT22;1693;49.602;11.046;2023-12-14T15:50:42;6.60;99.90
3360;DHT22;1693;49.602;11.046;2023-12-14T15:53:09;6.70;99.90
3360;DHT22;1693;49.602;11.046;2023-12-14T15:55:37;6.70;99.90
3360;DHT22;1693;49.602;11.046;2023-12-14T15:58:05;6.70;99.90
3360;DHT22;1693;49.602;11.046;2023-12-14T16:00:32;6.60;99.90
3360;DHT22;1693;49.602;11.046;2023-12-14T16:03:00;6.60;99.90
3360;DHT22;1693;49.602;11.046;2023-12-14T16:05:28;6.60;99.90
3360;DHT22;1693;49.602;11.046;2023-12-14T16:07:55;6.60;99.90